createdAt,value
2019-01-04T00:04:37.841Z,103024.10
2019-01-04T00:09:42.270Z,103025.84
2019-01-04T00:14:46.357Z,103024.84
2019-01-04T00:19:50.403Z,103031.64
2019-01-04T00:24:54.439Z,103020.06
2019-01-04T00:29:58.580Z,103017.36
2019-01-04T00:35:02.619Z,103019.09
2019-01-04T00:40:08.034Z,103017.75
2019-01-04T00:45:12.220Z,103014.19
2019-01-04T00:50:16.414Z,103016.81
2019-01-04T00:56:10.057Z,103014.28
2019-01-04T01:02:04.764Z,103012.20
2019-01-04T01:07:42.834Z,103010.98
2019-01-04T01:13:38.689Z,103018.17
2019-01-04T01:19:21.362Z,103013.06
2019-01-04T01:25:23.989Z,103016.37
2019-01-04T01:31:04.719Z,103008.79
2019-01-04T01:36:55.460Z,103016.78
2019-01-04T01:42:38.073Z,103017.17
2019-01-04T01:47:49.609Z,103021.02
2019-01-04T01:52:53.673Z,103012.85
2019-01-04T01:57:57.759Z,103007.62
2019-01-04T02:03:01.899Z,103003.95
2019-01-04T02:08:06.009Z,102996.16
2019-01-04T02:13:10.059Z,102977.49
2019-01-04T02:18:14.413Z,102983.09
2019-01-04T02:23:18.470Z,102975.59
2019-01-04T02:28:22.551Z,102965.44
2019-01-04T02:33:26.580Z,102967.23
2019-01-04T02:38:30.618Z,102962.26
2019-01-04T02:43:34.716Z,102953.63
2019-01-04T02:48:39.026Z,102948.86
2019-01-04T02:53:43.342Z,102944.87
2019-01-04T02:58:47.416Z,102934.38
2019-01-04T03:03:51.493Z,102924.09
2019-01-04T03:08:55.557Z,102918.94
2019-01-04T03:13:59.869Z,102918.28
2019-01-04T03:19:04.228Z,102928.02
2019-01-04T03:24:08.531Z,102917.07
2019-01-04T03:29:13.177Z,102903.95
2019-01-04T03:34:17.256Z,102899.69
2019-01-04T03:39:21.255Z,102879.02
2019-01-04T03:44:25.339Z,102880.34
2019-01-04T03:49:29.439Z,102865.86
2019-01-04T03:54:33.465Z,102854.78
2019-01-04T03:59:37.540Z,102841.27
2019-01-04T04:04:41.574Z,102829.98
2019-01-04T04:09:45.659Z,102829.48
2019-01-04T04:14:49.721Z,102832.27
2019-01-04T04:19:53.774Z,102826.70
2019-01-04T04:24:57.824Z,102816.59
2019-01-04T04:30:02.169Z,102810.80
2019-01-04T04:35:06.230Z,102809.44
2019-01-04T04:40:10.310Z,102807.67
2019-01-04T04:45:14.380Z,102805.45
2019-01-04T04:50:18.808Z,102812.66
2019-01-04T04:55:22.864Z,102808.83
2019-01-04T05:00:26.897Z,102802.33
2019-01-04T05:05:30.960Z,102795.22
2019-01-04T05:10:35.003Z,102791.88
2019-01-04T05:15:39.558Z,102794.52
2019-01-04T05:20:43.937Z,102782.74
2019-01-04T05:25:48.002Z,102775.80
2019-01-04T05:30:52.032Z,102768.31
2019-01-04T05:35:56.097Z,102776.63
2019-01-04T05:41:00.150Z,102788.81
2019-01-04T05:46:04.223Z,102774.90
2019-01-04T05:51:08.226Z,102758.28
2019-01-04T05:56:12.834Z,102752.97
2019-01-04T06:01:16.928Z,102754.70
2019-01-04T06:06:21.003Z,102734.50
2019-01-04T06:11:25.038Z,102731.13
2019-01-04T06:16:29.159Z,102734.75
2019-01-04T06:21:33.464Z,102742.86
2019-01-04T06:26:37.515Z,102727.83
2019-01-04T06:31:41.945Z,102724.71
2019-01-04T06:36:45.955Z,102700.58
2019-01-04T06:41:50.282Z,102697.25
2019-01-04T06:47:12.841Z,102703.55
2019-01-04T06:52:17.333Z,102707.62
2019-01-04T06:57:21.392Z,102714.94
2019-01-04T07:02:25.449Z,102691.97
2019-01-04T07:07:29.514Z,102691.42
2019-01-04T07:12:33.566Z,102695.08
2019-01-04T07:17:37.633Z,102685.45
2019-01-04T07:22:41.715Z,102686.88
2019-01-04T07:27:45.728Z,102671.06
2019-01-04T07:32:50.117Z,102657.37
2019-01-04T07:37:54.148Z,102643.20
2019-01-04T07:42:59.682Z,102648.20
2019-01-04T07:48:03.773Z,102642.58
2019-01-04T07:53:07.792Z,102648.12
2019-01-04T07:58:11.827Z,102641.48
2019-01-04T08:03:23.985Z,102644.08
2019-01-04T08:08:28.052Z,102639.43
2019-01-04T08:13:32.312Z,102611.55
2019-01-04T08:18:36.344Z,102611.98
2019-01-04T08:23:40.383Z,102605.59
2019-01-04T08:28:44.484Z,102603.62
2019-01-04T08:33:48.581Z,102599.06
2019-01-04T08:38:52.613Z,102602.63
2019-01-04T08:43:56.770Z,102595.00
2019-01-04T08:49:00.783Z,102600.78
2019-01-04T08:54:07.279Z,102592.47
2019-01-04T08:59:11.384Z,102578.76
2019-01-04T09:04:15.426Z,102572.69
2019-01-04T09:09:19.494Z,102582.23
2019-01-04T09:14:23.555Z,102575.48
2019-01-04T09:19:28.234Z,102558.81
2019-01-04T09:24:32.461Z,102541.34
2019-01-04T09:29:36.546Z,102545.03
2019-01-04T09:34:40.566Z,102532.52
2019-01-04T09:39:44.644Z,102525.57
2019-01-04T09:44:48.651Z,102523.70
2019-01-04T09:49:52.703Z,102500.69
2019-01-04T09:54:56.773Z,102487.14
2019-01-04T10:00:00.881Z,102477.04
2019-01-04T10:05:05.527Z,102460.87
2019-01-04T10:10:10.916Z,102465.64
2019-01-04T10:15:15.974Z,102450.88
2019-01-04T10:20:20.073Z,102425.50
2019-01-04T10:25:24.115Z,102424.25
2019-01-04T10:30:28.202Z,102423.85
2019-01-04T10:35:32.239Z,102412.13
2019-01-04T10:40:36.314Z,102387.88
2019-01-04T10:45:40.363Z,102378.00
2019-01-04T10:50:44.455Z,102365.97
2019-01-04T10:55:48.623Z,102348.86
2019-01-04T11:00:52.829Z,102322.83
2019-01-04T11:05:56.957Z,102305.88
2019-01-04T11:11:01.033Z,102291.72
2019-01-04T11:16:05.199Z,102286.10
2019-01-04T11:21:12.059Z,102262.06
2019-01-04T11:26:49.253Z,102246.03
2019-01-04T11:32:16.758Z,102251.78
2019-01-04T11:37:37.369Z,102239.71
2019-01-04T11:43:40.464Z,102235.95
2019-01-04T11:49:05.550Z,102207.38
2019-01-04T11:54:14.059Z,102184.83
2019-01-04T11:59:18.910Z,102149.95
2019-01-04T12:04:22.971Z,102150.62
2019-01-04T12:09:27.594Z,102138.80
2019-01-04T12:14:31.627Z,102119.95
2019-01-04T12:19:35.719Z,102107.11
2019-01-04T12:24:39.778Z,102107.97
2019-01-04T12:29:43.894Z,102115.72
2019-01-04T12:34:48.079Z,102125.50
2019-01-04T12:39:52.092Z,102148.83
2019-01-04T12:44:56.161Z,102159.16
2019-01-04T12:50:02.116Z,102150.36
2019-01-04T12:55:06.489Z,102143.31
2019-01-04T13:00:13.980Z,102144.73
2019-01-04T13:05:18.051Z,102135.55
2019-01-04T13:10:22.064Z,102123.73
2019-01-04T13:15:26.104Z,102144.89
2019-01-04T13:20:30.180Z,102142.56
2019-01-04T13:25:34.234Z,102138.13
2019-01-04T13:30:38.434Z,102148.23
2019-01-04T13:35:42.491Z,102142.35
2019-01-04T13:40:46.707Z,102127.67
2019-01-04T13:45:50.874Z,102119.81
2019-01-04T13:50:54.886Z,102108.72
2019-01-04T13:55:58.935Z,102099.98
2019-01-04T14:01:03.308Z,102098.60
2019-01-04T14:06:07.351Z,102095.88
2019-01-04T14:11:11.477Z,102082.06
2019-01-04T14:16:24.339Z,102068.19
2019-01-04T14:21:46.293Z,102064.33
2019-01-04T14:26:50.331Z,102056.29
2019-01-04T14:31:54.371Z,102054.14
2019-01-04T14:36:58.435Z,102059.05
2019-01-04T14:42:02.438Z,102063.87
2019-01-04T14:47:06.477Z,102064.61
2019-01-04T14:52:10.520Z,102059.83
2019-01-04T14:57:14.556Z,102072.88
2019-01-04T15:02:18.627Z,102079.88
2019-01-04T15:07:22.658Z,102055.20
2019-01-04T15:12:26.714Z,102034.13
2019-01-04T15:17:30.816Z,102021.67
2019-01-04T15:22:42.624Z,102012.23
2019-01-04T15:27:58.663Z,102023.12
2019-01-04T15:33:20.635Z,102023.39
2019-01-04T15:38:26.255Z,102016.70
2019-01-04T15:43:30.321Z,102001.56
2019-01-04T15:48:36.573Z,101994.59
2019-01-04T15:53:41.546Z,101994.62
2019-01-04T15:58:45.932Z,102012.27
2019-01-04T16:03:50.496Z,102022.30
2019-01-04T16:08:55.608Z,102024.75
2019-01-04T16:14:01.660Z,102031.37
2019-01-04T16:19:06.174Z,102017.39
2019-01-04T16:24:10.237Z,102016.34
2019-01-04T16:29:14.270Z,102020.23
2019-01-04T16:34:18.707Z,102027.34
2019-01-04T16:39:23.180Z,102011.00
2019-01-04T16:44:29.428Z,102013.26
2019-01-04T16:49:34.024Z,102014.47
2019-01-04T16:54:38.324Z,102011.00
2019-01-04T16:59:52.254Z,101995.38
2019-01-04T17:05:24.748Z,101992.92
2019-01-04T17:10:37.942Z,102001.72
2019-01-04T17:15:42.210Z,101998.14
2019-01-04T17:20:46.623Z,101995.02
2019-01-04T17:25:50.643Z,102011.38
2019-01-04T17:30:54.685Z,102014.76
2019-01-04T17:35:58.733Z,102026.04
2019-01-04T17:41:02.962Z,102032.44
2019-01-04T17:46:06.992Z,102032.08
2019-01-04T17:51:10.995Z,102029.70
2019-01-04T17:56:32.989Z,102032.16
2019-01-04T18:01:37.036Z,102035.00
2019-01-04T18:06:41.122Z,102029.70
2019-01-04T18:12:03.002Z,102023.75
2019-01-04T18:17:07.869Z,102015.73
2019-01-04T18:22:12.832Z,102027.53
2019-01-04T18:27:17.580Z,102022.63
2019-01-04T18:32:21.776Z,102023.17
2019-01-04T18:37:25.824Z,102025.00
2019-01-04T18:42:29.867Z,102022.81
2019-01-04T18:47:39.336Z,102016.21
2019-01-04T18:52:40.493Z,102019.13
2019-01-04T18:57:45.239Z,102012.22
2019-01-04T19:02:49.331Z,102016.87
2019-01-04T19:07:53.536Z,102002.58
2019-01-04T19:12:58.057Z,102002.41
2019-01-04T19:18:02.775Z,102009.01
2019-01-04T19:23:07.511Z,101998.50
2019-01-04T19:28:12.573Z,102007.87
2019-01-04T19:33:16.769Z,102006.36
2019-01-04T19:38:21.327Z,101991.50
2019-01-04T19:43:26.855Z,101982.44
2019-01-04T19:48:32.415Z,101970.13
2019-01-04T19:53:38.726Z,101961.42
2019-01-04T19:58:44.881Z,101962.55
2019-01-04T20:03:50.523Z,101945.33
2019-01-04T20:09:35.214Z,101941.44
2019-01-04T20:15:35.066Z,101932.00
2019-01-04T20:20:45.685Z,101917.22
2019-01-04T20:25:57.896Z,101912.48
2019-01-04T20:31:15.476Z,101904.70
2019-01-04T20:36:24.487Z,101897.83
2019-01-04T20:41:30.767Z,101896.96
2019-01-04T20:46:45.352Z,101891.50
2019-01-04T20:51:51.125Z,101894.11
2019-01-04T20:56:55.702Z,101876.07
2019-01-04T21:02:00.081Z,101872.04
2019-01-04T21:07:18.804Z,101876.55
2019-01-04T21:12:24.593Z,101860.96
2019-01-04T21:17:29.896Z,101851.90
2019-01-04T21:22:34.439Z,101849.98
2019-01-04T21:27:39.177Z,101844.30
2019-01-04T21:32:43.187Z,101847.80
2019-01-04T21:37:57.763Z,101838.59
2019-01-04T21:43:03.841Z,101839.19
2019-01-04T21:48:15.990Z,101834.36
2019-01-04T21:53:30.166Z,101838.80
2019-01-04T21:58:36.307Z,101830.95
2019-01-04T22:03:49.979Z,101829.23
2019-01-04T22:08:59.664Z,101815.03
2019-01-04T22:14:05.226Z,101812.07
2019-01-04T22:19:09.892Z,101808.22
2019-01-04T22:24:21.982Z,101804.11
2019-01-04T22:29:26.874Z,101812.23
2019-01-04T22:34:31.431Z,101806.58
2019-01-04T22:39:42.807Z,101783.19
2019-01-04T22:44:47.454Z,101782.20
2019-01-04T22:49:51.730Z,101761.84
2019-01-04T22:54:55.819Z,101755.44
2019-01-04T22:59:59.891Z,101755.23
2019-01-04T23:05:04.761Z,101757.83
2019-01-04T23:10:08.785Z,101753.95
2019-01-04T23:15:19.818Z,101750.66
2019-01-04T23:20:19.847Z,101741.69
2019-01-04T23:25:23.965Z,101728.33
2019-01-04T23:30:28.661Z,101711.34
2019-01-04T23:35:33.102Z,101702.44
2019-01-04T23:40:38.260Z,101694.37
2019-01-04T23:45:42.413Z,101666.67
2019-01-04T23:50:46.488Z,101669.19
2019-01-04T23:55:50.517Z,101667.71
